• Join FlightAware (Why Join?)
  • Login
  • US Flag 
11:34AM EDT


 

Airport Tracker/Info


-or-


 

Live Flight TrackerFlight Track Log ✈ WIG1043 ✈ 17-Apr-2014 ✈ KBGR - KMHT

Flight Track Log - Related Links

Times and Time Zones

All times are in EDT time to prevent confusion due to time zone crossing. See the WIG1043 flight status page for this flight to view local times or setup timezone preferences in your user account.

Time Position Orientation Groundspeed Altitude Reporting Facility
EDT Latitude Longitude Course Direction KTS MPH feet Rate Location/Type
07:41PM 44.8072 -68.9203 226° Southwest 157 181 3,300  Level Boston Center
07:42PM 44.7756 -68.9658 226° Southwest 158 182 4,700 1,200 Climbing Boston Center
07:43PM 44.7439 -69.0114 226° Southwest 159 183 5,800 600 Climbing Boston Center
07:44PM 44.7108 -69.0639 228° Southwest 172 198 6,000 60 Climbing Boston Center
07:45PM 44.6072 -69.1048 226° Southwest  Level FlightAware Approximate
07:45PM 44.6703 -69.1192 224° Southwest 195 224 6,000  Level Boston Center
07:46PM 44.5745 -69.1523 226° Southwest  Level FlightAware Approximate
07:46PM 44.6303 -69.1761 225° Southwest 199 229 6,000  Level Boston Center
07:47PM 44.5900 -69.2342 226° Southwest 201 231 6,000  Level Boston Center
07:48PM 44.5464 -69.2889 222° Southwest 203 234 6,000 -60 Level Boston Center
07:49PM 44.5042 -69.3467 224° Southwest 206 237 5,900  Descending Boston Center
07:50PM 44.4539 -69.4142 224° Southwest 206 237 6,000  Climbing Boston Center
07:51PM 44.4119 -69.4714 224° Southwest 206 237 6,000  Level Boston Center
07:52PM 44.3717 -69.5292 226° Southwest 206 237 6,000  Level Boston Center
07:53PM 44.3303 -69.5853 224° Southwest 206 237 6,000  Level Boston Center
07:54PM 44.2883 -69.6400 223° Southwest 206 237 6,000  Level Boston Center
07:55PM 44.2447 -69.7067 228° Southwest 213 245 6,000  Level Boston Center
07:56PM 44.2044 -69.7611 224° Southwest 206 237 6,000  Level Boston Center
07:57PM 44.1644 -69.8192 226° Southwest 205 236 6,100  Climbing Boston Center
07:58PM 44.1194 -69.8775 223° Southwest 206 237 6,100  Level Boston Center
07:59PM 44.0789 -69.9342 225° Southwest 207 238 6,100  Level Boston Center
08:00PM 44.0361 -69.9872 222° Southwest 206 237 6,100  Level Boston Center
08:01PM 43.9894 -70.0428 221° Southwest 206 237 6,100  Level Boston Center
08:02PM 43.9489 -70.0978 224° Southwest 205 236 6,100 -60 Level Boston Center
08:03PM 43.9069 -70.1522 223° Southwest 206 237 6,000 -60 Descending Boston Center
08:04PM 43.8628 -70.2103 223° Southwest 205 236 6,000  Level Boston Center
08:05PM 43.8231 -70.2631 224° Southwest 205 236 6,100  Climbing Boston Center
08:06PM 43.7794 -70.3231 225° Southwest 205 236 6,100  Level Boston Center
08:07PM 43.7369 -70.3764 222° Southwest 205 236 6,100  Level Boston Center
08:08PM 43.6969 -70.4331 226° Southwest 205 236 6,100  Level Boston Center
08:09PM 43.6525 -70.4917 224° Southwest 206 237 6,100  Level Boston Center
08:10PM 43.6103 -70.5461 223° Southwest 205 236 6,100  Level Boston Center
08:11PM 43.5683 -70.5981 222° Southwest 205 236 6,100  Level Boston Center
08:12PM 43.5294 -70.6553 227° Southwest 206 237 6,100  Level Boston Center
08:13PM 43.4861 -70.7178 226° Southwest 208 239 6,100  Level Boston Center
08:14PM 43.4439 -70.7719 223° Southwest 209 241 6,100  Level Boston Center
08:16PM 43.4006 -70.8317 225° Southwest 211 243 6,100  Level Boston Center
08:17PM 43.3578 -70.8864 223° Southwest 212 244 6,100  Level Boston Center
08:18PM 43.3153 -70.9406 223° Southwest 210 242 6,100 -60 Level Boston Center
08:19PM 43.2692 -70.9986 223° Southwest 210 242 6,000 -240 Descending Boston Center
08:20PM 43.2250 -71.0544 223° Southwest 214 246 5,700 -480 Descending Boston Center
08:21PM 43.1858 -71.1192 230° Southwest 218 251 5,100 -720 Descending Boston Center
08:22PM 43.1431 -71.1833 228° Southwest 225 259 4,300 -840 Descending Boston Center
08:23PM 43.0922 -71.2464 222° Southwest 226 260 3,500 -780 Descending Boston Center
08:24PM 43.0444 -71.3022 221° Southwest 229 264 2,800 -720 Descending Boston Center
08:25PM 43.0064 -71.3500 223° Southwest 189 217 2,100 -780 Descending Boston Center
08:26PM 42.9783 -71.3858 223° Southwest 130 150 1,300 -780 Descending Boston Center
08:27PM 42.9547 -71.4158 223° Southwest 120 138 600 -720 Descending Boston Center
08:29PM 42.9328 -71.4358 222° Southwest  Level Estimated
08:36PM 42.9328 -71.4358 222° Southwest  Level Estimated